Time;durP1;ratioP1;P1;durP2;ratioP2;P2;SDS_P1;SDS_P2;PMS_P1;PMS_P2;Temp;Humidity;BMP_temperature;BMP_pressure;BME280_temperature;BME280_humidity;BME280_pressure;Samples;Min_cycle;Max_cycle;Signal;HPM_P1;HPM_P2
2021/11/10 00:00:23;;;;;;;6.82;4.85;;;;;;;4.11;97.71;101987.06;4938985;28;20491;-78
2021/11/10 00:02:50;;;;;;;7.50;4.18;;;;;;;4.09;97.54;101980.03;4957657;28;20047;-80
2021/11/10 00:05:17;;;;;;;7.72;4.82;;;;;;;4.05;97.50;101972.97;4957897;28;20495;-79
2021/11/10 00:07:47;;;;;;;9.57;4.68;;;;;;;4.01;97.87;101977.16;4941963;28;20055;-79
2021/11/10 00:10:15;;;;;;;6.28;4.50;;;;;;;3.97;98.22;101978.72;4934143;28;20063;-80
2021/11/10 00:12:43;;;;;;;9.88;4.30;;;;;;;3.95;98.40;101982.09;4935457;28;20051;-85
2021/11/10 00:15:11;;;;;;;8.65;4.50;;;;;;;3.90;98.20;101979.31;4935952;28;20066;-82
2021/11/10 00:17:38;;;;;;;6.07;4.00;;;;;;;3.87;98.32;101976.63;4942019;28;20487;-78
2021/11/10 00:20:07;;;;;;;6.10;4.18;;;;;;;3.82;98.28;101975.56;4934186;28;20058;-82
2021/11/10 00:22:36;;;;;;;9.35;4.88;;;;;;;3.79;98.61;101988.38;4924314;28;20394;-79
2021/11/10 00:25:06;;;;;;;6.22;4.05;;;;;;;3.76;99.11;101970.13;4937746;28;20138;-82
2021/11/10 00:27:33;;;;;;;7.95;4.38;;;;;;;3.76;99.12;101986.53;4938707;28;20425;-80
2021/11/10 00:30:02;;;;;;;12.30;4.47;;;;;;;3.76;99.42;101971.00;4939671;28;20039;-78
2021/11/10 00:32:28;;;;;;;7.93;3.75;;;;;;;3.78;98.87;101973.63;4944511;28;20626;-81
2021/11/10 00:34:55;;;;;;;5.75;4.03;;;;;;;3.79;99.75;101967.63;4929150;28;20051;-79
2021/11/10 00:37:21;;;;;;;7.70;3.63;;;;;;;3.81;99.04;101960.84;4941335;28;20131;-81
2021/11/10 00:39:48;;;;;;;8.93;3.97;;;;;;;3.80;98.91;101967.69;4922308;28;20454;-84
2021/11/10 00:42:14;;;;;;;6.53;3.20;;;;;;;3.80;99.12;101964.22;4925372;28;20485;-80
2021/11/10 00:44:41;;;;;;;7.88;4.10;;;;;;;3.79;99.29;101965.94;4940168;28;20360;-80
2021/11/10 00:47:08;;;;;;;5.53;3.88;;;;;;;3.76;99.04;101962.34;4940673;28;20055;-80
2021/11/10 00:49:36;;;;;;;4.97;3.38;;;;;;;3.74;98.92;101958.81;4951467;28;20779;-81
2021/11/10 00:52:03;;;;;;;6.65;4.35;;;;;;;3.73;99.12;101962.22;4944290;28;20050;-82
2021/11/10 00:54:31;;;;;;;6.05;4.55;;;;;;;3.74;99.04;101958.81;4940726;28;21364;-82
2021/11/10 00:57:01;;;;;;;4.20;3.72;;;;;;;3.74;98.98;101959.72;4940751;28;20067;-80
2021/11/10 00:59:27;;;;;;;7.38;4.47;;;;;;;3.73;98.92;101947.56;4924240;28;20596;-80
2021/11/10 01:01:54;;;;;;;5.05;4.03;;;;;;;3.73;98.91;101952.75;4942208;28;20146;-84
2021/11/10 01:04:21;;;;;;;6.65;4.20;;;;;;;3.69;99.16;101950.88;4940036;28;20058;-83
2021/11/10 01:06:47;;;;;;;8.07;3.92;;;;;;;3.66;98.98;101962.78;4941119;28;20152;-80
2021/11/10 01:09:17;;;;;;;10.20;4.55;;;;;;;3.63;98.97;101950.59;4934765;28;20047;-81
2021/11/10 01:11:46;;;;;;;7.72;3.22;;;;;;;3.58;98.88;101954.72;4940742;28;20046;-79
2021/11/10 01:14:15;;;;;;;11.55;5.70;;;;;;;3.53;99.27;101951.94;4921937;28;20557;-82
2021/11/10 01:16:41;;;;;;;6.80;4.50;;;;;;;3.50;99.80;101950.94;4940869;28;20051;-82
2021/11/10 01:19:08;;;;;;;5.97;3.65;;;;;;;3.50;99.84;101950.94;4937205;28;21111;-82
2021/11/10 01:21:35;;;;;;;10.18;3.75;;;;;;;3.49;99.90;101944.84;4940903;28;20136;-78
2021/11/10 01:24:03;;;;;;;6.75;3.78;;;;;;;3.49;100.00;101939.69;4939431;28;20825;-80
2021/11/10 01:26:31;;;;;;;5.32;3.00;;;;;;;3.48;100.00;101928.44;4927763;28;20047;-81
2021/11/10 01:29:00;;;;;;;11.07;3.88;;;;;;;3.46;99.84;101930.09;4937627;28;20460;-83
2021/11/10 01:31:30;;;;;;;6.78;4.00;;;;;;;3.47;100.00;101921.50;4939406;28;20051;-82
2021/11/10 01:34:07;;;;;;;6.18;3.75;;;;;;;3.47;100.00;101924.09;4940287;28;20063;-81
2021/11/10 01:36:44;;;;;;;8.40;4.00;;;;;;;3.46;99.81;101927.50;4953756;28;20051;-86
2021/11/10 01:39:12;;;;;;;7.88;4.47;;;;;;;3.47;100.00;101913.75;4953283;28;20054;-83
2021/11/10 01:41:45;;;;;;;6.00;3.60;;;;;;;3.47;99.88;101915.47;4932440;28;20051;-87
2021/11/10 01:44:21;;;;;;;8.02;4.05;;;;;;;3.44;99.88;101908.44;4942170;28;20047;-81
2021/11/10 01:46:49;;;;;;;8.10;3.95;;;;;;;3.43;100.00;101911.84;4942877;28;21181;-79
2021/11/10 01:49:16;;;;;;;9.02;3.83;;;;;;;3.43;100.00;101901.50;4923405;28;20581;-79
2021/11/10 01:51:49;;;;;;;6.00;3.95;;;;;;;3.42;100.00;101899.72;4940472;28;20065;-86
2021/11/10 01:54:22;;;;;;;8.85;4.13;;;;;;;3.41;100.00;101900.53;4941899;28;20043;-80
2021/11/10 01:56:51;;;;;;;7.10;4.22;;;;;;;3.41;100.00;101897.94;4924824;28;20043;-84
2021/11/10 01:59:49;;;;;;;9.35;4.00;;;;;;;3.42;100.00;101898.84;4938286;28;20079;-84
2021/11/10 02:02:23;;;;;;;7.03;4.25;;;;;;;3.39;100.00;101891.84;4936392;28;20419;-82
2021/11/10 02:04:51;;;;;;;8.13;4.30;;;;;;;3.41;100.00;101892.78;4926829;28;20716;-78
2021/11/10 02:07:25;;;;;;;4.38;3.88;;;;;;;3.41;100.00;101892.78;4938616;28;20055;-80
2021/11/10 02:09:57;;;;;;;9.02;4.15;;;;;;;3.38;100.00;101887.47;4941499;28;20094;-83
2021/11/10 02:12:23;;;;;;;7.20;4.38;;;;;;;3.38;100.00;101876.25;4937269;28;20039;-81
2021/11/10 02:14:53;;;;;;;6.32;4.10;;;;;;;3.38;100.00;101884.03;4921272;28;20047;-83
2021/11/10 02:17:21;;;;;;;5.18;3.38;;;;;;;3.34;100.00;101874.34;4935799;28;20096;-81
2021/11/10 02:19:48;;;;;;;9.93;4.15;;;;;;;3.33;100.00;101876.06;4916849;28;20047;-79
2021/11/10 02:22:18;;;;;;;8.63;4.75;;;;;;;3.30;100.00;101871.63;4940981;28;20044;-79
2021/11/10 02:24:46;;;;;;;6.45;4.50;;;;;;;3.29;100.00;101871.59;4938374;28;20055;-81
2021/11/10 02:27:18;;;;;;;6.72;5.65;;;;;;;3.27;100.00;101875.81;4955850;28;20454;-83
2021/11/10 02:29:50;;;;;;;10.13;4.70;;;;;;;3.26;100.00;101869.75;4951199;28;20048;-82
2021/11/10 02:32:16;;;;;;;6.95;4.15;;;;;;;3.23;100.00;101871.31;4953712;28;20050;-85
2021/11/10 02:34:45;;;;;;;6.82;4.38;;;;;;;3.22;100.00;101866.97;4937833;28;20075;-81
2021/11/10 02:37:19;;;;;;;5.85;3.85;;;;;;;3.19;100.00;101865.13;4936495;28;21449;-85
2021/11/10 02:39:47;;;;;;;6.68;4.10;;;;;;;3.17;100.00;101858.13;4932514;28;20047;-81
2021/11/10 02:42:18;;;;;;;10.00;5.18;;;;;;;3.16;100.00;101867.59;4940240;28;20130;-80
2021/11/10 02:44:52;;;;;;;7.15;3.78;;;;;;;3.18;100.00;101865.06;4951203;28;20114;-80
2021/11/10 02:47:21;;;;;;;6.25;4.10;;;;;;;3.15;100.00;101863.25;4927189;28;20047;-80
2021/11/10 02:49:48;;;;;;;5.55;3.30;;;;;;;3.11;100.00;101870.00;4933665;28;20064;-80
2021/11/10 02:52:19;;;;;;;9.10;4.32;;;;;;;3.10;100.00;101872.53;4921025;28;20054;-80
2021/11/10 02:54:54;;;;;;;12.05;4.20;;;;;;;3.07;100.00;101869.81;4935965;28;20063;-80
2021/11/10 02:57:26;;;;;;;7.07;4.00;;;;;;;3.05;100.00;101868.84;4940296;28;20051;-84
2021/11/10 02:59:54;;;;;;;16.52;5.03;;;;;;;3.02;100.00;101864.44;4933618;28;20058;-80
2021/11/10 03:02:32;;;;;;;4.93;4.22;;;;;;;3.02;100.00;101872.19;4923739;28;20074;-81
2021/11/10 03:05:00;;;;;;;14.52;4.43;;;;;;;2.98;100.00;101866.00;4917195;28;20505;-79
2021/11/10 03:07:30;;;;;;;10.07;4.00;;;;;;;2.96;100.00;101872.84;4940949;28;20118;-83
2021/11/10 03:10:02;;;;;;;5.68;4.00;;;;;;;2.97;100.00;101866.84;4919854;28;20055;-78
2021/11/10 03:12:31;;;;;;;6.38;4.32;;;;;;;2.95;100.00;101870.19;4940694;28;20066;-81
2021/11/10 03:14:58;;;;;;;9.85;5.22;;;;;;;2.92;100.00;101870.94;4922464;28;20093;-82
2021/11/10 03:17:25;;;;;;;6.82;4.63;;;;;;;2.91;100.00;101869.19;4941016;28;20057;-78
2021/11/10 03:19:54;;;;;;;11.45;5.35;;;;;;;2.91;100.00;101868.31;4921099;28;21186;-81
2021/11/10 03:22:21;;;;;;;9.23;4.40;;;;;;;2.92;100.00;101868.38;4925021;28;20141;-81
2021/11/10 03:24:49;;;;;;;6.18;4.32;;;;;;;2.93;100.00;101862.38;4937854;28;20039;-80
2021/11/10 03:27:16;;;;;;;11.73;4.85;;;;;;;2.93;100.00;101872.72;4954991;28;20039;-86
2021/11/10 03:29:50;;;;;;;9.23;4.40;;;;;;;2.93;100.00;101874.41;4961129;28;20059;-84
2021/11/10 03:32:22;;;;;;;6.13;4.15;;;;;;;2.91;100.00;101873.47;4944606;28;20533;-83
2021/11/10 03:34:52;;;;;;;8.25;4.82;;;;;;;2.89;100.00;101869.94;4950577;28;20079;-80
2021/11/10 03:37:19;;;;;;;9.82;5.03;;;;;;;2.86;100.00;101867.22;4940664;28;20133;-79
2021/11/10 03:39:48;;;;;;;7.47;4.57;;;;;;;2.82;100.00;101861.03;4939073;28;20105;-81
2021/11/10 03:42:14;;;;;;;8.95;4.25;;;;;;;2.81;100.00;101864.44;4943683;28;20067;-78
2021/11/10 03:44:41;;;;;;;10.90;4.82;;;;;;;2.80;100.00;101868.72;4956299;28;20051;-85
2021/11/10 03:47:08;;;;;;;5.53;4.05;;;;;;;2.76;100.00;101865.94;4935761;28;20074;-77
2021/11/10 03:49:37;;;;;;;10.00;3.88;;;;;;;2.73;100.00;101869.28;4939079;28;20407;-78
2021/11/10 03:52:04;;;;;;;9.15;4.85;;;;;;;2.72;100.00;101867.50;4945406;28;20047;-81
2021/11/10 03:54:30;;;;;;;11.38;4.90;;;;;;;2.69;100.00;101869.97;4942358;28;20073;-79
2021/11/10 03:56:59;;;;;;;7.65;3.95;;;;;;;2.67;100.00;101870.72;4941293;28;20059;-79
2021/11/10 03:59:26;;;;;;;4.97;3.75;;;;;;;2.67;100.00;101870.72;4940699;28;20058;-80
2021/11/10 04:01:53;;;;;;;5.93;4.07;;;;;;;2.68;100.00;101869.91;4942494;28;20051;-79
2021/11/10 04:04:19;;;;;;;8.52;4.45;;;;;;;2.68;100.00;101875.94;4958841;28;20043;-82
2021/11/10 04:06:46;;;;;;;8.85;4.53;;;;;;;2.68;100.00;101867.31;4942826;28;20098;-82
2021/11/10 04:09:13;;;;;;;8.82;3.95;;;;;;;2.67;100.00;101875.88;4940746;28;20134;-79
2021/11/10 04:11:39;;;;;;;8.32;3.90;;;;;;;2.69;100.00;101867.38;4926850;28;20046;-80
2021/11/10 04:14:08;;;;;;;8.20;3.88;;;;;;;2.68;100.00;101868.19;4929603;28;20049;-82
2021/11/10 04:16:35;;;;;;;5.78;4.13;;;;;;;2.66;100.00;101862.09;4943670;28;20047;-81
2021/11/10 04:19:08;;;;;;;4.88;4.38;;;;;;;2.65;100.00;101862.91;4942683;28;21085;-79
2021/11/10 04:21:35;;;;;;;5.50;4.85;;;;;;;2.63;100.00;101857.69;4943318;28;20074;-78
2021/11/10 04:24:02;;;;;;;8.07;4.10;;;;;;;2.62;100.00;101858.50;4944993;28;20051;-81
2021/11/10 04:26:36;;;;;;;4.93;3.65;;;;;;;2.60;100.00;101867.88;4943374;28;20043;-81
2021/11/10 04:29:04;;;;;;;;;;;;;;;2.58;100.00;101869.53;4941498;28;20087;-82
2021/11/10 04:31:36;;;;;;;7.72;4.13;;;;;;;2.55;100.00;101861.59;4954645;28;20703;-82
2021/11/10 04:34:04;;;;;;;3.90;3.60;;;;;;;2.54;100.00;101874.47;4943532;28;20357;-79
2021/11/10 04:36:32;;;;;;;5.57;3.78;;;;;;;2.54;100.00;101864.13;4943347;28;20055;-79
2021/11/10 04:38:59;;;;;;;10.38;4.72;;;;;;;2.52;100.00;101861.50;4941181;28;20055;-78
2021/11/10 04:41:26;;;;;;;5.85;3.88;;;;;;;2.54;100.00;101865.00;4938960;28;20481;-78
2021/11/10 04:43:54;;;;;;;7.28;3.85;;;;;;;2.52;100.00;101851.16;4939934;28;20066;-86
2021/11/10 04:46:24;;;;;;;4.78;4.07;;;;;;;2.49;100.00;101848.44;4955801;28;20051;-79
2021/11/10 04:48:51;;;;;;;6.32;4.00;;;;;;;2.48;100.00;101854.41;4937867;28;20039;-84
2021/11/10 04:51:20;;;;;;;7.57;4.47;;;;;;;2.47;100.00;101855.22;4937097;28;20095;-81
2021/11/10 04:53:48;;;;;;;8.45;3.92;;;;;;;2.46;100.00;101853.47;4926335;28;20720;-85
2021/11/10 04:56:15;;;;;;;6.90;4.00;;;;;;;2.43;100.00;101846.44;4926105;28;20062;-80
2021/11/10 04:58:42;;;;;;;5.20;3.88;;;;;;;2.42;100.00;101847.25;4937340;28;20047;-79
2021/11/10 05:01:18;;;;;;;4.50;3.42;;;;;;;2.42;100.00;101851.56;4933310;28;20051;-82
2021/11/10 05:03:45;;;;;;;6.47;3.72;;;;;;;2.44;100.00;101862.88;4953444;28;20079;-82
2021/11/10 05:06:12;;;;;;;4.63;3.92;;;;;;;2.42;100.00;101852.44;4938885;28;20554;-86
2021/11/10 05:08:43;;;;;;;8.70;4.20;;;;;;;2.41;100.00;101847.19;4926559;28;20051;-81
2021/11/10 05:11:10;;;;;;;6.53;3.35;;;;;;;2.40;100.00;101851.50;4922132;28;20129;-78
2021/11/10 05:13:36;;;;;;;6.00;3.65;;;;;;;2.38;100.00;101845.38;4939221;28;20035;-87
2021/11/10 05:16:03;;;;;;;7.28;4.85;;;;;;;2.40;100.00;101848.00;4947976;28;20083;-82
2021/11/10 05:18:37;;;;;;;4.60;3.78;;;;;;;2.39;100.00;101844.56;4943233;28;20046;-82
2021/11/10 05:21:04;;;;;;;;;;;;;;;2.40;100.00;101837.69;4955948;28;20675;-79
2021/11/10 05:23:33;;;;;;;9.90;3.53;;;;;;;2.40;100.00;101846.34;4930360;28;19952;-83
2021/11/10 05:26:01;;;;;;;4.90;3.92;;;;;;;2.39;100.00;101835.94;4946092;28;20130;-80
2021/11/10 05:28:28;;;;;;;7.85;3.60;;;;;;;2.38;100.00;101847.09;4942819;28;20062;-78
2021/11/10 05:31:18;;;;;;;6.43;3.60;;;;;;;2.35;100.00;101840.06;4920757;28;20063;-83
2021/11/10 05:33:49;;;;;;;6.78;3.97;;;;;;;2.33;100.00;101825.31;4931021;28;20498;-82
2021/11/10 05:36:16;;;;;;;8.55;3.90;;;;;;;2.31;100.00;101835.59;4923368;28;20054;-81
2021/11/10 05:38:42;;;;;;;4.85;3.38;;;;;;;2.30;100.00;101834.69;4940388;28;20750;-77
2021/11/10 05:41:10;;;;;;;6.30;3.90;;;;;;;2.29;100.00;101826.88;4936516;28;20059;-84
2021/11/10 05:43:37;;;;;;;8.75;3.70;;;;;;;2.27;100.00;101821.66;4921363;28;21567;-83
2021/11/10 05:46:06;;;;;;;7.15;4.05;;;;;;;2.30;100.00;101826.06;4941656;28;20154;-83
2021/11/10 05:48:35;;;;;;;6.13;3.38;;;;;;;2.31;100.00;101822.69;4938710;28;20154;-81
2021/11/10 05:51:06;;;;;;;8.43;4.55;;;;;;;2.33;100.00;101828.78;4956358;28;20052;-84
2021/11/10 05:53:33;;;;;;;7.43;4.60;;;;;;;2.34;100.00;101829.69;4954762;28;20047;-81
2021/11/10 05:56:00;;;;;;;5.85;3.60;;;;;;;2.34;100.00;101833.13;4940152;28;20278;-83
2021/11/10 05:58:31;;;;;;;6.07;4.38;;;;;;;2.34;100.00;101824.50;4924721;28;20134;-83
2021/11/10 06:01:00;;;;;;;10.40;3.85;;;;;;;2.34;100.00;101833.13;4936423;28;20053;-85
2021/11/10 06:03:27;;;;;;;9.48;4.20;;;;;;;2.33;100.00;101825.31;4945186;28;20429;-82
2021/11/10 06:05:55;;;;;;;7.90;3.70;;;;;;;2.33;100.00;101823.59;4940665;28;20039;-82
2021/11/10 06:08:21;;;;;;;6.40;4.78;;;;;;;2.29;100.00;101827.78;4937068;28;20138;-82
2021/11/10 06:10:48;;;;;;;7.78;3.92;;;;;;;2.28;100.00;101818.25;4927028;28;20058;-81
2021/11/10 06:13:17;;;;;;;8.30;3.63;;;;;;;2.27;100.00;101825.94;4942587;28;20051;-83
2021/11/10 06:15:44;;;;;;;6.05;3.55;;;;;;;2.25;100.00;101832.72;4944185;28;20063;-80
2021/11/10 06:18:14;;;;;;;16.02;6.53;;;;;;;2.21;100.00;101826.53;4939612;28;20050;-80
2021/11/10 06:20:41;;;;;;;12.70;6.43;;;;;;;2.20;100.00;101822.19;4946728;28;20065;-79
2021/11/10 06:23:07;;;;;;;11.45;6.60;;;;;;;2.20;100.00;101817.00;4927709;28;20058;-81
2021/11/10 06:25:34;;;;;;;12.18;5.82;;;;;;;2.21;100.00;101829.13;4928153;28;20039;-80
2021/11/10 06:28:01;;;;;;;12.57;5.50;;;;;;;2.19;100.00;101832.47;4928524;28;20058;-82
2021/11/10 06:30:27;;;;;;;13.32;5.60;;;;;;;2.17;100.00;101834.09;4923527;28;20225;-82
2021/11/10 06:32:54;;;;;;;15.52;6.30;;;;;;;2.16;100.00;101825.44;4946420;28;20050;-86
2021/11/10 06:35:20;;;;;;;10.07;4.72;;;;;;;2.18;100.00;101826.41;4950550;28;20055;-85
2021/11/10 06:37:47;;;;;;;9.35;5.53;;;;;;;2.20;100.00;101819.59;4954903;28;20054;-87
2021/11/10 06:40:15;;;;;;;12.15;5.55;;;;;;;2.24;100.00;101821.53;4958574;28;20074;-85
2021/11/10 06:42:42;;;;;;;7.75;5.07;;;;;;;2.27;100.00;101823.38;4955635;28;20047;-83
2021/11/10 06:45:09;;;;;;;13.35;6.25;;;;;;;2.28;100.00;101828.59;4933230;28;20047;-81
2021/11/10 06:47:36;;;;;;;10.32;5.63;;;;;;;2.30;100.00;101834.69;4929918;28;20043;-85
2021/11/10 06:50:05;;;;;;;9.27;5.00;;;;;;;2.30;100.00;101839.00;4948072;28;20417;-87
2021/11/10 06:52:31;;;;;;;10.63;4.65;;;;;;;2.31;100.00;101843.34;4959531;28;20119;-83
2021/11/10 06:54:58;;;;;;;8.73;4.90;;;;;;;2.33;100.00;101848.56;4957534;28;20047;-84
2021/11/10 06:57:25;;;;;;;9.40;4.03;;;;;;;2.34;100.00;101847.78;4948243;28;20043;-82
2021/11/10 06:59:53;;;;;;;16.02;4.68;;;;;;;2.34;100.00;101848.63;4958771;28;20139;-82
2021/11/10 07:02:20;;;;;;;6.82;4.15;;;;;;;2.34;100.00;101853.81;4933300;28;20055;-81
2021/11/10 07:04:46;;;;;;;8.18;4.68;;;;;;;2.33;100.00;101846.88;4963682;28;20562;-79
2021/11/10 07:07:14;;;;;;;15.02;6.78;;;;;;;2.34;100.00;101855.53;4944974;28;20114;-82
2021/11/10 07:09:43;;;;;;;14.30;4.78;;;;;;;2.35;100.00;101873.66;4947227;28;20045;-80
2021/11/10 07:12:13;;;;;;;8.50;5.30;;;;;;;2.40;100.00;101884.19;4930609;28;20042;-80
2021/11/10 07:14:42;;;;;;;11.27;4.32;;;;;;;2.42;100.00;101886.03;4944050;28;20130;-81
2021/11/10 07:17:10;;;;;;;9.07;4.28;;;;;;;2.43;100.00;101881.75;4932157;28;20373;-84
2021/11/10 07:19:37;;;;;;;8.90;4.45;;;;;;;2.45;100.00;101890.44;4926449;28;20055;-82
2021/11/10 07:22:04;;;;;;;10.18;5.07;;;;;;;2.46;100.00;101893.13;4946521;28;20569;-82
2021/11/10 07:24:31;;;;;;;6.00;4.45;;;;;;;2.48;100.00;101891.47;4948325;28;20490;-82
2021/11/10 07:26:59;;;;;;;7.35;4.55;;;;;;;2.51;100.00;101882.09;4945866;28;20550;-81
2021/11/10 07:29:26;;;;;;;11.15;4.43;;;;;;;2.53;100.00;101873.59;4946051;28;20658;-79
2021/11/10 07:31:53;;;;;;;6.82;4.38;;;;;;;2.55;100.00;101882.28;4950622;28;20048;-80
2021/11/10 07:34:19;;;;;;;7.47;4.55;;;;;;;2.58;100.00;101871.19;4939332;28;20142;-80
2021/11/10 07:36:46;;;;;;;8.45;4.63;;;;;;;2.61;100.00;101874.81;4949193;28;20070;-81
2021/11/10 07:39:13;;;;;;;6.07;4.65;;;;;;;2.64;100.00;101879.22;4946304;28;20054;-79
2021/11/10 07:41:40;;;;;;;11.80;5.30;;;;;;;2.69;100.00;101877.72;4944347;28;20047;-81
2021/11/10 07:44:07;;;;;;;7.57;3.80;;;;;;;2.76;100.00;101884.03;4926770;28;20051;-82
2021/11/10 07:46:36;;;;;;;10.98;4.32;;;;;;;2.77;100.00;101884.09;4946382;28;20150;-82
2021/11/10 07:49:04;;;;;;;11.48;4.85;;;;;;;2.82;100.00;101886.91;4929170;28;20134;-80
2021/11/10 07:51:30;;;;;;;10.50;4.78;;;;;;;2.88;100.00;101881.09;4947631;28;20055;-83
2021/11/10 07:53:57;;;;;;;7.03;4.50;;;;;;;2.91;100.00;101884.69;4960158;28;20216;-82
2021/11/10 07:56:24;;;;;;;10.45;4.93;;;;;;;2.97;100.00;101881.47;4945013;28;20047;-79
2021/11/10 07:58:52;;;;;;;14.82;4.57;;;;;;;3.02;100.00;101884.28;4930551;28;20273;-80
2021/11/10 08:01:20;;;;;;;5.13;3.78;;;;;;;3.04;100.00;101885.19;4934748;28;20110;-79
2021/11/10 08:03:48;;;;;;;6.40;3.90;;;;;;;3.05;99.74;101877.53;4958128;28;20050;-82
2021/11/10 08:06:15;;;;;;;10.85;4.65;;;;;;;3.08;99.41;101874.19;4924034;29;20118;-81
2021/11/10 08:08:41;;;;;;;10.73;4.28;;;;;;;3.11;99.79;101882.94;4926708;28;20391;-79
2021/11/10 08:11:08;;;;;;;9.05;4.63;;;;;;;3.16;99.43;101869.31;4929267;28;20123;-81
2021/11/10 08:13:34;;;;;;;9.43;5.50;;;;;;;3.18;99.60;101871.16;4925860;29;20158;-83
2021/11/10 08:16:01;;;;;;;8.27;4.93;;;;;;;3.24;99.25;101873.97;4937643;28;20064;-80
2021/11/10 08:18:29;;;;;;;8.52;4.90;;;;;;;3.29;99.08;101869.88;4942896;28;20387;-85
2021/11/10 08:20:57;;;;;;;8.23;4.55;;;;;;;3.36;99.13;101870.13;4925386;29;20054;-85
2021/11/10 08:23:26;;;;;;;9.90;4.80;;;;;;;3.44;99.05;101869.63;4939439;28;20871;-83
2021/11/10 08:25:54;;;;;;;7.60;4.38;;;;;;;3.52;98.43;101871.59;4941086;28;20118;-79
2021/11/10 08:28:23;;;;;;;6.82;4.45;;;;;;;3.62;97.52;101868.56;4908503;29;20051;-80
2021/11/10 08:30:50;;;;;;;7.53;4.53;;;;;;;3.68;97.74;101875.69;4952883;28;20056;-79
2021/11/10 08:33:18;;;;;;;6.15;4.68;;;;;;;3.75;96.80;101873.38;4923819;29;20111;-80
2021/11/10 08:35:46;;;;;;;8.18;4.53;;;;;;;3.79;96.64;101864.03;4939196;28;20055;-80
2021/11/10 08:38:13;;;;;;;6.78;4.70;;;;;;;3.84;96.43;101862.50;4924338;29;20525;-81
2021/11/10 08:40:40;;;;;;;6.95;3.55;;;;;;;3.90;95.62;101867.94;4957238;28;20047;-79
2021/11/10 08:43:10;;;;;;;11.00;6.25;;;;;;;3.95;95.40;101875.84;4937265;28;20146;-80
2021/11/10 08:45:38;;;;;;;7.68;4.35;;;;;;;4.02;95.75;101875.28;4952318;28;20107;-84
2021/11/10 08:48:06;;;;;;;8.40;4.35;;;;;;;4.12;95.62;101877.38;4911749;29;20044;-81
2021/11/10 08:50:39;;;;;;;5.07;3.83;;;;;;;4.20;95.20;101880.28;4924673;28;20058;-79
2021/11/10 08:53:06;;;;;;;9.17;4.67;;;;;;;4.29;95.05;101877.13;4910415;29;20419;-82
2021/11/10 08:55:36;;;;;;;7.50;4.03;;;;;;;4.37;94.58;101879.97;4927221;29;20050;-81
2021/11/10 08:58:05;;;;;;;5.80;3.90;;;;;;;4.50;94.47;101881.31;4928129;29;20047;-78
2021/11/10 09:00:35;;;;;;;11.27;4.35;;;;;;;4.64;93.70;101885.28;4909881;29;20126;-80
2021/11/10 09:03:01;;;;;;;7.05;4.63;;;;;;;4.80;93.16;101879.81;4932860;29;20052;-83
2021/11/10 09:05:28;;;;;;;12.45;4.90;;;;;;;4.95;92.64;101875.97;4920721;29;20047;-81
2021/11/10 09:07:55;;;;;;;5.20;3.50;;;;;;;5.08;92.64;101866.88;4929800;29;20661;-79
2021/11/10 09:10:22;;;;;;;5.13;3.80;;;;;;;5.21;91.61;101873.38;4928534;29;20142;-81
2021/11/10 09:12:51;;;;;;;12.45;4.93;;;;;;;5.30;90.87;101868.47;4931229;28;20039;-84
2021/11/10 09:15:20;;;;;;;7.85;4.65;;;;;;;5.36;90.04;101863.47;4930993;28;20051;-79
2021/11/10 09:17:48;;;;;;;6.78;4.07;;;;;;;5.40;90.10;101859.28;4910388;29;20043;-81
2021/11/10 09:20:22;;;;;;;8.75;3.72;;;;;;;5.38;89.92;101855.72;4955283;28;20570;-79
2021/11/10 09:22:49;;;;;;;7.90;5.00;;;;;;;5.31;89.36;101862.44;4928395;29;20076;-81
2021/11/10 09:25:19;;;;;;;7.38;3.70;;;;;;;5.31;89.62;101870.22;4941408;28;20040;-83
2021/11/10 09:27:46;;;;;;;5.85;3.22;;;;;;;5.29;89.73;101869.28;4943151;28;20068;-78
2021/11/10 09:30:17;;;;;;;4.97;3.63;;;;;;;5.27;89.83;101863.19;4943210;28;20672;-79
2021/11/10 09:32:46;;;;;;;6.47;3.50;;;;;;;5.24;89.94;101866.56;4931532;29;20125;-80
2021/11/10 09:35:15;;;;;;;6.68;3.97;;;;;;;5.22;89.83;101862.16;4917974;29;20589;-81
2021/11/10 09:37:42;;;;;;;6.85;4.65;;;;;;;5.21;90.16;101860.38;4932244;28;20062;-81
2021/11/10 09:40:14;;;;;;;6.97;3.20;;;;;;;5.18;90.39;101874.13;4934529;28;20048;-79
2021/11/10 09:42:43;;;;;;;5.95;3.63;;;;;;;5.16;90.70;101883.56;4934839;28;20078;-82
2021/11/10 09:45:15;;;;;;;8.80;4.72;;;;;;;5.20;90.77;101877.69;4945743;28;20047;-82
2021/11/10 09:47:43;;;;;;;12.25;4.43;;;;;;;5.25;90.48;101881.31;4924643;28;20062;-82
2021/11/10 09:50:16;;;;;;;4.72;3.88;;;;;;;5.32;90.43;101876.28;4921144;29;20070;-80
2021/11/10 09:52:43;;;;;;;4.57;3.20;;;;;;;5.35;90.12;101879.00;4926506;29;20529;-79
2021/11/10 09:55:13;;;;;;;7.78;3.97;;;;;;;5.42;90.49;101875.75;4924528;29;20094;-79
2021/11/10 09:57:40;;;;;;;5.97;3.70;;;;;;;5.46;90.04;101872.44;4926626;29;20063;-78
2021/11/10 10:00:10;;;;;;;7.32;4.18;;;;;;;5.52;89.65;101888.22;4928262;28;20044;-81
2021/11/10 10:02:38;;;;;;;8.50;3.63;;;;;;;5.56;89.85;101895.25;4941695;28;20063;-85
2021/11/10 10:05:06;;;;;;;7.55;5.78;;;;;;;5.57;90.28;101888.38;4932643;29;20393;-80
2021/11/10 10:07:33;;;;;;;9.13;3.72;;;;;;;5.59;90.21;101887.59;4912751;29;20043;-80
2021/11/10 10:10:00;;;;;;;4.40;3.90;;;;;;;5.61;90.09;101874.63;4914274;29;20043;-84
2021/11/10 10:12:27;;;;;;;4.68;3.45;;;;;;;5.62;90.05;101871.22;4929937;28;20556;-78
2021/11/10 10:14:55;;;;;;;13.57;3.88;;;;;;;5.61;90.11;101872.91;4923138;28;20122;-86
2021/11/10 10:17:41;;;;;;;7.25;3.55;;;;;;;5.65;90.45;101862.63;4938673;28;20119;-81
2021/11/10 10:20:27;;;;;;;7.47;3.88;;;;;;;5.73;90.34;101874.13;4920456;29;20070;-80
2021/11/10 10:22:57;;;;;;;6.30;3.72;;;;;;;5.87;90.10;101882.34;4926321;28;20403;-81
2021/11/10 10:25:38;;;;;;;5.03;3.72;;;;;;;6.06;89.22;101869.09;4912287;29;20134;-81
2021/11/10 10:28:06;;;;;;;8.27;4.15;;;;;;;6.31;88.59;101871.50;4912163;29;20466;-79
2021/11/10 10:30:34;;;;;;;5.32;3.22;;;;;;;6.60;87.40;101867.13;4929882;29;20166;-84
2021/11/10 10:33:12;;;;;;;4.28;3.05;;;;;;;7.00;86.10;101856.84;4937909;29;20043;-83
2021/11/10 10:35:42;;;;;;;8.23;3.00;;;;;;;7.38;84.08;101856.91;4925330;29;20051;-79
2021/11/10 10:38:16;;;;;;;6.97;3.72;;;;;;;7.70;82.65;101848.97;4926767;29;20107;-83
2021/11/10 10:40:48;;;;;;;4.78;3.65;;;;;;;7.96;81.60;101854.72;4938733;29;20052;-83
2021/11/10 10:43:17;;;;;;;7.93;3.60;;;;;;;8.15;80.78;101852.50;4942978;29;20036;-81
2021/11/10 10:45:53;;;;;;;4.72;3.55;;;;;;;8.32;78.96;101843.28;4943060;29;20079;-78
2021/11/10 10:48:29;;;;;;;4.32;3.50;;;;;;;8.49;77.92;101855.84;4938692;29;20136;-79
2021/11/10 10:51:12;;;;;;;4.50;3.33;;;;;;;8.64;78.03;101843.03;4945160;28;20054;-79
2021/11/10 10:53:52;;;;;;;6.25;3.35;;;;;;;8.83;75.84;101839.03;4924978;29;20043;-78
2021/11/10 10:56:33;;;;;;;4.63;2.95;;;;;;;8.96;73.99;101847.06;4927030;29;20043;-78
2021/11/10 10:59:12;;;;;;;5.15;3.78;;;;;;;9.06;73.74;101843.75;4931012;29;20475;-82
2021/11/10 11:01:55;;;;;;;3.75;3.03;;;;;;;9.09;74.48;101833.38;4931031;29;20050;-81
2021/11/10 11:04:27;;;;;;;4.40;2.72;;;;;;;9.05;74.09;101826.34;4925256;28;20051;-79
2021/11/10 11:07:02;;;;;;;6.28;2.58;;;;;;;8.88;73.60;101818.25;4929432;29;20063;-79
2021/11/10 11:09:43;;;;;;;4.00;3.20;;;;;;;8.71;74.27;101829.25;4924153;29;20048;-80
2021/11/10 11:12:15;;;;;;;3.08;2.22;;;;;;;8.54;75.32;101836.78;4927664;29;20058;-80
2021/11/10 11:14:52;;;;;;;5.35;2.38;;;;;;;8.39;75.35;101820.81;4927910;28;20039;-79
2021/11/10 11:17:20;;;;;;;4.05;2.97;;;;;;;8.28;75.94;101815.41;4931659;29;20131;-79
2021/11/10 11:20:08;;;;;;;3.65;2.25;;;;;;;8.24;74.17;101813.59;4927364;29;20047;-82
2021/11/10 11:22:40;;;;;;;2.95;2.00;;;;;;;8.25;73.11;101815.31;4927126;28;20052;-83
2021/11/10 11:25:40;;;;;;;2.47;2.25;;;;;;;8.31;71.77;101814.56;4922081;29;20054;-81
2021/11/10 11:28:24;;;;;;;3.15;2.00;;;;;;;8.41;70.13;101817.38;4918952;29;20139;-79
2021/11/10 11:30:55;;;;;;;6.13;3.20;;;;;;;8.50;70.87;101814.09;4926779;29;20055;-80
2021/11/10 11:33:27;;;;;;;8.98;2.97;;;;;;;8.62;70.25;101803.00;4931031;29;20043;-81
2021/11/10 11:35:57;;;;;;;4.68;2.65;;;;;;;8.75;70.28;101810.19;4937511;29;20055;-83